sensor_id;sensor_type;location;lat;lon;timestamp;P1;durP1;ratioP1;P2;durP2;ratioP2
23747;SDS011;12054;53.662;10.126;2023-04-28T00:01:22;11.50;;;8.50;;
23747;SDS011;12054;53.662;10.126;2023-04-28T00:03:48;11.75;;;7.90;;
23747;SDS011;12054;53.662;10.126;2023-04-28T00:06:13;10.73;;;7.60;;
23747;SDS011;12054;53.662;10.126;2023-04-28T00:08:39;11.93;;;8.35;;
23747;SDS011;12054;53.662;10.126;2023-04-28T00:11:11;15.00;;;7.95;;
23747;SDS011;12054;53.662;10.126;2023-04-28T00:13:37;12.32;;;7.72;;
23747;SDS011;12054;53.662;10.126;2023-04-28T00:16:02;11.60;;;7.55;;
23747;SDS011;12054;53.662;10.126;2023-04-28T00:18:28;13.20;;;8.68;;
23747;SDS011;12054;53.662;10.126;2023-04-28T00:20:54;12.05;;;8.38;;
23747;SDS011;12054;53.662;10.126;2023-04-28T00:23:20;13.80;;;7.97;;
23747;SDS011;12054;53.662;10.126;2023-04-28T00:25:52;13.63;;;8.05;;
23747;SDS011;12054;53.662;10.126;2023-04-28T00:28:21;11.77;;;7.93;;
23747;SDS011;12054;53.662;10.126;2023-04-28T00:30:47;11.30;;;8.02;;
23747;SDS011;12054;53.662;10.126;2023-04-28T00:33:12;13.98;;;8.90;;
23747;SDS011;12054;53.662;10.126;2023-04-28T00:35:38;11.00;;;8.50;;
23747;SDS011;12054;53.662;10.126;2023-04-28T00:38:05;13.73;;;8.73;;
23747;SDS011;12054;53.662;10.126;2023-04-28T00:40:32;12.63;;;7.88;;
23747;SDS011;12054;53.662;10.126;2023-04-28T00:42:58;12.90;;;8.90;;
23747;SDS011;12054;53.662;10.126;2023-04-28T00:45:23;14.45;;;8.50;;
23747;SDS011;12054;53.662;10.126;2023-04-28T00:47:49;12.38;;;8.20;;
23747;SDS011;12054;53.662;10.126;2023-04-28T00:50:14;17.42;;;8.90;;
23747;SDS011;12054;53.662;10.126;2023-04-28T00:52:41;14.48;;;8.23;;
23747;SDS011;12054;53.662;10.126;2023-04-28T00:55:08;11.82;;;7.90;;
23747;SDS011;12054;53.662;10.126;2023-04-28T00:57:34;11.98;;;7.97;;
23747;SDS011;12054;53.662;10.126;2023-04-28T01:00:00;13.05;;;8.00;;
23747;SDS011;12054;53.662;10.126;2023-04-28T01:02:27;11.18;;;7.90;;
23747;SDS011;12054;53.662;10.126;2023-04-28T01:04:55;12.02;;;7.75;;
23747;SDS011;12054;53.662;10.126;2023-04-28T01:07:20;13.38;;;8.02;;
23747;SDS011;12054;53.662;10.126;2023-04-28T01:09:46;10.70;;;8.15;;
23747;SDS011;12054;53.662;10.126;2023-04-28T01:12:12;12.30;;;7.93;;
23747;SDS011;12054;53.662;10.126;2023-04-28T01:14:37;11.48;;;7.05;;
23747;SDS011;12054;53.662;10.126;2023-04-28T01:17:03;14.75;;;7.63;;
23747;SDS011;12054;53.662;10.126;2023-04-28T01:19:29;14.40;;;7.15;;
23747;SDS011;12054;53.662;10.126;2023-04-28T01:21:55;11.18;;;7.72;;
23747;SDS011;12054;53.662;10.126;2023-04-28T01:24:20;11.32;;;7.57;;
23747;SDS011;12054;53.662;10.126;2023-04-28T01:26:46;11.20;;;7.68;;
23747;SDS011;12054;53.662;10.126;2023-04-28T01:29:11;13.10;;;7.93;;
23747;SDS011;12054;53.662;10.126;2023-04-28T01:31:37;11.90;;;7.38;;
23747;SDS011;12054;53.662;10.126;2023-04-28T01:34:03;11.80;;;7.75;;
23747;SDS011;12054;53.662;10.126;2023-04-28T01:36:28;11.18;;;8.05;;
23747;SDS011;12054;53.662;10.126;2023-04-28T01:38:54;12.93;;;7.70;;
23747;SDS011;12054;53.662;10.126;2023-04-28T01:41:19;12.77;;;7.97;;
23747;SDS011;12054;53.662;10.126;2023-04-28T01:43:46;11.98;;;8.02;;
23747;SDS011;12054;53.662;10.126;2023-04-28T01:46:11;13.43;;;8.27;;
23747;SDS011;12054;53.662;10.126;2023-04-28T01:48:37;10.80;;;7.68;;
23747;SDS011;12054;53.662;10.126;2023-04-28T01:51:02;14.85;;;7.63;;
23747;SDS011;12054;53.662;10.126;2023-04-28T01:53:28;13.80;;;8.02;;
23747;SDS011;12054;53.662;10.126;2023-04-28T01:55:54;12.35;;;8.02;;
23747;SDS011;12054;53.662;10.126;2023-04-28T01:58:20;10.85;;;6.90;;
23747;SDS011;12054;53.662;10.126;2023-04-28T02:00:46;10.07;;;6.97;;
23747;SDS011;12054;53.662;10.126;2023-04-28T02:03:12;11.20;;;7.82;;
23747;SDS011;12054;53.662;10.126;2023-04-28T02:05:37;11.13;;;7.53;;
23747;SDS011;12054;53.662;10.126;2023-04-28T02:08:03;14.15;;;7.97;;
23747;SDS011;12054;53.662;10.126;2023-04-28T02:10:28;12.95;;;7.80;;
23747;SDS011;12054;53.662;10.126;2023-04-28T02:12:54;12.10;;;7.47;;
23747;SDS011;12054;53.662;10.126;2023-04-28T02:15:19;8.95;;;6.85;;
23747;SDS011;12054;53.662;10.126;2023-04-28T02:17:45;10.85;;;6.85;;
23747;SDS011;12054;53.662;10.126;2023-04-28T02:20:11;11.73;;;6.88;;
23747;SDS011;12054;53.662;10.126;2023-04-28T02:22:38;9.77;;;6.30;;
23747;SDS011;12054;53.662;10.126;2023-04-28T02:25:04;11.15;;;7.38;;
23747;SDS011;12054;53.662;10.126;2023-04-28T02:27:30;12.05;;;6.88;;
23747;SDS011;12054;53.662;10.126;2023-04-28T02:29:56;12.52;;;7.22;;
23747;SDS011;12054;53.662;10.126;2023-04-28T02:32:21;10.95;;;7.10;;
23747;SDS011;12054;53.662;10.126;2023-04-28T02:34:51;10.85;;;6.70;;
23747;SDS011;12054;53.662;10.126;2023-04-28T02:37:18;9.55;;;7.25;;
23747;SDS011;12054;53.662;10.126;2023-04-28T02:39:43;11.88;;;7.38;;
23747;SDS011;12054;53.662;10.126;2023-04-28T02:42:09;11.30;;;6.97;;
23747;SDS011;12054;53.662;10.126;2023-04-28T02:44:34;18.27;;;7.10;;
23747;SDS011;12054;53.662;10.126;2023-04-28T02:47:00;10.27;;;6.60;;
23747;SDS011;12054;53.662;10.126;2023-04-28T02:49:25;9.07;;;6.90;;
23747;SDS011;12054;53.662;10.126;2023-04-28T02:51:51;10.52;;;7.80;;
23747;SDS011;12054;53.662;10.126;2023-04-28T02:54:16;11.25;;;7.07;;
23747;SDS011;12054;53.662;10.126;2023-04-28T02:56:51;9.93;;;6.70;;
23747;SDS011;12054;53.662;10.126;2023-04-28T02:59:17;9.95;;;6.78;;
23747;SDS011;12054;53.662;10.126;2023-04-28T03:01:42;9.93;;;6.88;;
23747;SDS011;12054;53.662;10.126;2023-04-28T03:04:08;11.32;;;6.90;;
23747;SDS011;12054;53.662;10.126;2023-04-28T03:06:33;9.98;;;6.97;;
23747;SDS011;12054;53.662;10.126;2023-04-28T03:08:59;10.98;;;7.57;;
23747;SDS011;12054;53.662;10.126;2023-04-28T03:11:24;9.40;;;6.82;;
23747;SDS011;12054;53.662;10.126;2023-04-28T03:13:50;11.18;;;7.05;;
23747;SDS011;12054;53.662;10.126;2023-04-28T03:16:15;11.48;;;7.15;;
23747;SDS011;12054;53.662;10.126;2023-04-28T03:18:41;10.23;;;7.07;;
23747;SDS011;12054;53.662;10.126;2023-04-28T03:21:06;11.70;;;7.53;;
23747;SDS011;12054;53.662;10.126;2023-04-28T03:23:32;11.00;;;7.32;;
23747;SDS011;12054;53.662;10.126;2023-04-28T03:25:57;10.60;;;7.20;;
23747;SDS011;12054;53.662;10.126;2023-04-28T03:28:23;11.13;;;7.60;;
23747;SDS011;12054;53.662;10.126;2023-04-28T03:30:48;11.93;;;7.68;;
23747;SDS011;12054;53.662;10.126;2023-04-28T03:33:14;15.82;;;7.63;;
23747;SDS011;12054;53.662;10.126;2023-04-28T03:35:40;12.02;;;8.45;;
23747;SDS011;12054;53.662;10.126;2023-04-28T03:38:05;11.93;;;7.30;;
23747;SDS011;12054;53.662;10.126;2023-04-28T03:40:31;13.00;;;8.25;;
23747;SDS011;12054;53.662;10.126;2023-04-28T03:42:57;14.23;;;7.97;;
23747;SDS011;12054;53.662;10.126;2023-04-28T03:45:23;12.82;;;7.78;;
23747;SDS011;12054;53.662;10.126;2023-04-28T03:47:48;14.07;;;8.05;;
23747;SDS011;12054;53.662;10.126;2023-04-28T03:50:14;14.20;;;8.02;;
23747;SDS011;12054;53.662;10.126;2023-04-28T03:52:39;13.27;;;8.18;;
23747;SDS011;12054;53.662;10.126;2023-04-28T03:55:05;14.10;;;8.15;;
23747;SDS011;12054;53.662;10.126;2023-04-28T03:57:31;12.43;;;7.30;;
23747;SDS011;12054;53.662;10.126;2023-04-28T03:59:56;16.02;;;8.85;;
23747;SDS011;12054;53.662;10.126;2023-04-28T04:02:22;12.85;;;7.70;;
23747;SDS011;12054;53.662;10.126;2023-04-28T04:04:47;13.65;;;7.95;;
23747;SDS011;12054;53.662;10.126;2023-04-28T04:07:14;13.07;;;8.10;;
23747;SDS011;12054;53.662;10.126;2023-04-28T04:09:39;13.70;;;7.93;;
23747;SDS011;12054;53.662;10.126;2023-04-28T04:12:05;14.00;;;8.35;;
23747;SDS011;12054;53.662;10.126;2023-04-28T04:14:31;12.05;;;7.60;;
23747;SDS011;12054;53.662;10.126;2023-04-28T04:16:57;14.82;;;7.88;;
23747;SDS011;12054;53.662;10.126;2023-04-28T04:19:22;13.82;;;7.60;;
23747;SDS011;12054;53.662;10.126;2023-04-28T04:21:50;14.48;;;7.90;;
23747;SDS011;12054;53.662;10.126;2023-04-28T04:24:16;17.50;;;7.53;;
23747;SDS011;12054;53.662;10.126;2023-04-28T04:26:41;12.32;;;7.57;;
23747;SDS011;12054;53.662;10.126;2023-04-28T04:29:07;12.27;;;7.45;;
23747;SDS011;12054;53.662;10.126;2023-04-28T04:31:32;10.32;;;6.95;;
23747;SDS011;12054;53.662;10.126;2023-04-28T04:33:58;11.73;;;7.15;;
23747;SDS011;12054;53.662;10.126;2023-04-28T04:36:23;11.63;;;7.22;;
23747;SDS011;12054;53.662;10.126;2023-04-28T04:38:49;16.15;;;7.43;;
23747;SDS011;12054;53.662;10.126;2023-04-28T04:41:15;11.95;;;7.15;;
23747;SDS011;12054;53.662;10.126;2023-04-28T04:43:40;12.43;;;7.15;;
23747;SDS011;12054;53.662;10.126;2023-04-28T04:46:06;11.05;;;6.50;;
23747;SDS011;12054;53.662;10.126;2023-04-28T04:48:31;11.50;;;6.80;;
23747;SDS011;12054;53.662;10.126;2023-04-28T04:50:57;12.85;;;7.07;;
23747;SDS011;12054;53.662;10.126;2023-04-28T04:53:22;11.32;;;6.50;;
23747;SDS011;12054;53.662;10.126;2023-04-28T04:55:48;8.00;;;5.93;;
23747;SDS011;12054;53.662;10.126;2023-04-28T04:58:13;11.38;;;6.00;;
23747;SDS011;12054;53.662;10.126;2023-04-28T05:00:39;8.20;;;5.82;;
23747;SDS011;12054;53.662;10.126;2023-04-28T05:03:04;11.02;;;6.20;;
23747;SDS011;12054;53.662;10.126;2023-04-28T05:05:30;12.35;;;5.90;;
23747;SDS011;12054;53.662;10.126;2023-04-28T05:07:56;9.45;;;6.43;;
23747;SDS011;12054;53.662;10.126;2023-04-28T05:10:22;8.82;;;5.45;;
23747;SDS011;12054;53.662;10.126;2023-04-28T05:12:48;8.18;;;5.63;;
23747;SDS011;12054;53.662;10.126;2023-04-28T05:15:14;11.02;;;5.93;;
23747;SDS011;12054;53.662;10.126;2023-04-28T05:17:40;7.32;;;5.00;;
23747;SDS011;12054;53.662;10.126;2023-04-28T05:20:05;8.60;;;5.30;;
23747;SDS011;12054;53.662;10.126;2023-04-28T05:22:32;9.63;;;4.90;;
23747;SDS011;12054;53.662;10.126;2023-04-28T05:24:57;6.65;;;5.00;;
23747;SDS011;12054;53.662;10.126;2023-04-28T05:27:23;7.25;;;4.80;;
23747;SDS011;12054;53.662;10.126;2023-04-28T05:29:48;7.22;;;4.50;;
23747;SDS011;12054;53.662;10.126;2023-04-28T05:32:14;5.95;;;4.32;;
23747;SDS011;12054;53.662;10.126;2023-04-28T05:34:39;6.57;;;4.18;;
23747;SDS011;12054;53.662;10.126;2023-04-28T05:37:04;6.25;;;4.05;;
23747;SDS011;12054;53.662;10.126;2023-04-28T05:39:30;6.72;;;4.05;;
23747;SDS011;12054;53.662;10.126;2023-04-28T05:41:56;5.88;;;3.95;;
23747;SDS011;12054;53.662;10.126;2023-04-28T05:44:22;7.70;;;4.43;;
23747;SDS011;12054;53.662;10.126;2023-04-28T05:46:48;6.07;;;3.95;;
23747;SDS011;12054;53.662;10.126;2023-04-28T05:49:14;8.23;;;4.10;;
23747;SDS011;12054;53.662;10.126;2023-04-28T05:51:39;8.07;;;4.15;;
23747;SDS011;12054;53.662;10.126;2023-04-28T05:54:05;7.10;;;3.75;;
23747;SDS011;12054;53.662;10.126;2023-04-28T05:56:31;7.40;;;3.90;;
23747;SDS011;12054;53.662;10.126;2023-04-28T05:58:56;6.72;;;3.92;;
23747;SDS011;12054;53.662;10.126;2023-04-28T06:01:23;9.20;;;3.45;;
23747;SDS011;12054;53.662;10.126;2023-04-28T06:03:48;5.25;;;3.50;;
23747;SDS011;12054;53.662;10.126;2023-04-28T06:06:14;4.55;;;3.45;;
23747;SDS011;12054;53.662;10.126;2023-04-28T06:08:39;5.55;;;3.70;;
23747;SDS011;12054;53.662;10.126;2023-04-28T06:11:06;6.55;;;3.80;;
23747;SDS011;12054;53.662;10.126;2023-04-28T06:13:31;4.78;;;3.17;;
23747;SDS011;12054;53.662;10.126;2023-04-28T06:15:57;6.80;;;3.60;;
23747;SDS011;12054;53.662;10.126;2023-04-28T06:18:23;5.75;;;3.70;;
23747;SDS011;12054;53.662;10.126;2023-04-28T06:20:48;4.65;;;3.30;;
23747;SDS011;12054;53.662;10.126;2023-04-28T06:23:14;5.60;;;3.58;;
23747;SDS011;12054;53.662;10.126;2023-04-28T06:25:40;3.80;;;2.88;;
23747;SDS011;12054;53.662;10.126;2023-04-28T06:28:06;5.50;;;3.10;;
23747;SDS011;12054;53.662;10.126;2023-04-28T06:30:31;5.15;;;3.67;;
23747;SDS011;12054;53.662;10.126;2023-04-28T06:32:58;4.22;;;3.17;;
23747;SDS011;12054;53.662;10.126;2023-04-28T06:35:24;5.88;;;3.35;;
23747;SDS011;12054;53.662;10.126;2023-04-28T06:37:49;5.57;;;3.05;;
23747;SDS011;12054;53.662;10.126;2023-04-28T06:40:15;5.40;;;3.53;;
23747;SDS011;12054;53.662;10.126;2023-04-28T06:42:41;5.93;;;3.25;;
23747;SDS011;12054;53.662;10.126;2023-04-28T06:45:06;5.97;;;3.08;;
23747;SDS011;12054;53.662;10.126;2023-04-28T06:47:32;6.68;;;2.90;;
23747;SDS011;12054;53.662;10.126;2023-04-28T06:49:58;4.72;;;2.95;;
23747;SDS011;12054;53.662;10.126;2023-04-28T06:52:25;5.65;;;3.38;;
23747;SDS011;12054;53.662;10.126;2023-04-28T06:54:53;6.25;;;2.90;;
23747;SDS011;12054;53.662;10.126;2023-04-28T06:57:18;6.75;;;3.30;;
23747;SDS011;12054;53.662;10.126;2023-04-28T06:59:45;6.75;;;3.35;;
23747;SDS011;12054;53.662;10.126;2023-04-28T07:02:10;5.03;;;3.25;;
23747;SDS011;12054;53.662;10.126;2023-04-28T07:04:36;3.88;;;2.65;;
23747;SDS011;12054;53.662;10.126;2023-04-28T07:07:01;6.25;;;2.33;;
23747;SDS011;12054;53.662;10.126;2023-04-28T07:09:31;5.35;;;2.53;;
23747;SDS011;12054;53.662;10.126;2023-04-28T07:11:56;6.32;;;3.03;;
23747;SDS011;12054;53.662;10.126;2023-04-28T07:14:22;4.47;;;2.42;;
23747;SDS011;12054;53.662;10.126;2023-04-28T07:16:47;5.53;;;2.63;;
23747;SDS011;12054;53.662;10.126;2023-04-28T07:19:13;4.05;;;2.65;;
23747;SDS011;12054;53.662;10.126;2023-04-28T07:21:38;5.03;;;2.53;;
23747;SDS011;12054;53.662;10.126;2023-04-28T07:24:04;2.75;;;2.42;;
23747;SDS011;12054;53.662;10.126;2023-04-28T07:26:30;5.32;;;2.47;;
23747;SDS011;12054;53.662;10.126;2023-04-28T07:28:57;4.05;;;3.10;;
23747;SDS011;12054;53.662;10.126;2023-04-28T07:31:23;6.55;;;3.30;;
23747;SDS011;12054;53.662;10.126;2023-04-28T07:33:48;5.47;;;3.15;;
23747;SDS011;12054;53.662;10.126;2023-04-28T07:36:14;4.97;;;2.95;;
23747;SDS011;12054;53.662;10.126;2023-04-28T07:38:40;7.00;;;2.90;;
23747;SDS011;12054;53.662;10.126;2023-04-28T07:41:05;3.22;;;2.50;;
23747;SDS011;12054;53.662;10.126;2023-04-28T07:43:31;3.42;;;2.85;;
23747;SDS011;12054;53.662;10.126;2023-04-28T07:45:56;3.75;;;2.53;;
23747;SDS011;12054;53.662;10.126;2023-04-28T07:48:23;10.85;;;2.88;;
23747;SDS011;12054;53.662;10.126;2023-04-28T07:50:48;4.53;;;2.63;;
23747;SDS011;12054;53.662;10.126;2023-04-28T07:53:14;3.83;;;2.55;;
23747;SDS011;12054;53.662;10.126;2023-04-28T07:55:39;5.03;;;2.50;;
23747;SDS011;12054;53.662;10.126;2023-04-28T07:58:07;3.97;;;2.80;;
23747;SDS011;12054;53.662;10.126;2023-04-28T08:00:32;2.33;;;1.75;;
23747;SDS011;12054;53.662;10.126;2023-04-28T08:02:58;3.65;;;2.70;;
23747;SDS011;12054;53.662;10.126;2023-04-28T08:05:24;5.07;;;2.90;;
23747;SDS011;12054;53.662;10.126;2023-04-28T08:07:49;3.47;;;2.63;;
23747;SDS011;12054;53.662;10.126;2023-04-28T08:10:15;2.60;;;2.40;;
23747;SDS011;12054;53.662;10.126;2023-04-28T08:12:40;4.78;;;2.80;;
23747;SDS011;12054;53.662;10.126;2023-04-28T08:15:07;7.35;;;2.95;;
23747;SDS011;12054;53.662;10.126;2023-04-28T08:17:33;3.33;;;2.60;;
23747;SDS011;12054;53.662;10.126;2023-04-28T08:19:59;6.60;;;2.10;;
23747;SDS011;12054;53.662;10.126;2023-04-28T08:22:24;4.28;;;3.08;;
23747;SDS011;12054;53.662;10.126;2023-04-28T08:24:50;5.22;;;3.00;;
23747;SDS011;12054;53.662;10.126;2023-04-28T08:27:15;6.43;;;2.70;;
23747;SDS011;12054;53.662;10.126;2023-04-28T08:29:41;5.47;;;3.28;;
23747;SDS011;12054;53.662;10.126;2023-04-28T08:32:06;5.55;;;3.10;;
23747;SDS011;12054;53.662;10.126;2023-04-28T08:34:32;6.10;;;2.55;;
23747;SDS011;12054;53.662;10.126;2023-04-28T08:36:59;4.68;;;2.47;;
23747;SDS011;12054;53.662;10.126;2023-04-28T08:39:24;6.07;;;3.05;;
23747;SDS011;12054;53.662;10.126;2023-04-28T08:41:51;5.03;;;2.75;;
23747;SDS011;12054;53.662;10.126;2023-04-28T08:44:17;2.55;;;2.10;;
23747;SDS011;12054;53.662;10.126;2023-04-28T08:46:43;7.63;;;2.72;;
23747;SDS011;12054;53.662;10.126;2023-04-28T08:49:14;4.85;;;2.70;;
23747;SDS011;12054;53.662;10.126;2023-04-28T08:51:59;4.65;;;3.05;;
23747;SDS011;12054;53.662;10.126;2023-04-28T08:54:29;4.80;;;3.20;;
23747;SDS011;12054;53.662;10.126;2023-04-28T08:56:55;4.32;;;3.03;;
23747;SDS011;12054;53.662;10.126;2023-04-28T08:59:22;7.97;;;3.30;;
23747;SDS011;12054;53.662;10.126;2023-04-28T09:01:48;6.18;;;3.00;;
23747;SDS011;12054;53.662;10.126;2023-04-28T09:04:17;4.72;;;3.10;;
23747;SDS011;12054;53.662;10.126;2023-04-28T09:06:43;4.80;;;3.47;;
23747;SDS011;12054;53.662;10.126;2023-04-28T09:09:23;5.68;;;3.58;;
23747;SDS011;12054;53.662;10.126;2023-04-28T09:11:53;5.45;;;3.17;;
23747;SDS011;12054;53.662;10.126;2023-04-28T09:14:23;8.63;;;3.47;;
23747;SDS011;12054;53.662;10.126;2023-04-28T09:16:50;6.50;;;3.17;;
23747;SDS011;12054;53.662;10.126;2023-04-28T09:19:16;5.07;;;3.13;;
23747;SDS011;12054;53.662;10.126;2023-04-28T09:21:51;5.32;;;3.00;;
23747;SDS011;12054;53.662;10.126;2023-04-28T09:24:30;7.25;;;3.30;;
23747;SDS011;12054;53.662;10.126;2023-04-28T09:26:58;4.47;;;3.20;;
23747;SDS011;12054;53.662;10.126;2023-04-28T09:29:24;5.82;;;3.40;;
23747;SDS011;12054;53.662;10.126;2023-04-28T09:31:50;5.90;;;3.10;;
23747;SDS011;12054;53.662;10.126;2023-04-28T09:34:17;9.23;;;3.92;;
23747;SDS011;12054;53.662;10.126;2023-04-28T09:36:43;6.03;;;4.05;;
23747;SDS011;12054;53.662;10.126;2023-04-28T09:39:08;5.57;;;3.45;;
23747;SDS011;12054;53.662;10.126;2023-04-28T09:41:38;6.25;;;3.72;;
23747;SDS011;12054;53.662;10.126;2023-04-28T09:44:15;6.15;;;3.67;;
23747;SDS011;12054;53.662;10.126;2023-04-28T09:46:45;6.95;;;4.00;;
23747;SDS011;12054;53.662;10.126;2023-04-28T09:49:11;9.35;;;3.75;;
23747;SDS011;12054;53.662;10.126;2023-04-28T09:51:38;4.88;;;3.72;;
23747;SDS011;12054;53.662;10.126;2023-04-28T09:54:04;6.97;;;3.50;;
23747;SDS011;12054;53.662;10.126;2023-04-28T09:56:30;6.03;;;3.33;;
23747;SDS011;12054;53.662;10.126;2023-04-28T09:58:58;6.20;;;3.33;;
23747;SDS011;12054;53.662;10.126;2023-04-28T10:01:25;4.63;;;3.67;;
23747;SDS011;12054;53.662;10.126;2023-04-28T10:03:52;6.25;;;3.63;;
23747;SDS011;12054;53.662;10.126;2023-04-28T10:06:20;6.60;;;4.20;;
23747;SDS011;12054;53.662;10.126;2023-04-28T10:08:46;7.10;;;3.75;;
23747;SDS011;12054;53.662;10.126;2023-04-28T10:11:14;5.82;;;3.67;;
23747;SDS011;12054;53.662;10.126;2023-04-28T10:13:41;5.38;;;3.33;;
23747;SDS011;12054;53.662;10.126;2023-04-28T10:16:10;5.57;;;3.90;;
23747;SDS011;12054;53.662;10.126;2023-04-28T10:18:36;5.85;;;3.88;;
23747;SDS011;12054;53.662;10.126;2023-04-28T10:21:03;5.72;;;3.80;;
23747;SDS011;12054;53.662;10.126;2023-04-28T10:23:35;5.15;;;3.55;;
23747;SDS011;12054;53.662;10.126;2023-04-28T10:26:22;4.53;;;3.83;;
23747;SDS011;12054;53.662;10.126;2023-04-28T10:28:59;6.82;;;3.83;;
23747;SDS011;12054;53.662;10.126;2023-04-28T10:31:24;4.88;;;3.20;;
23747;SDS011;12054;53.662;10.126;2023-04-28T10:33:50;5.25;;;3.50;;
23747;SDS011;12054;53.662;10.126;2023-04-28T10:36:51;6.28;;;4.03;;
23747;SDS011;12054;53.662;10.126;2023-04-28T10:39:11;7.13;;;4.10;;
23747;SDS011;12054;53.662;10.126;2023-04-28T10:41:36;7.03;;;4.13;;
23747;SDS011;12054;53.662;10.126;2023-04-28T10:44:44;8.02;;;3.65;;
23747;SDS011;12054;53.662;10.126;2023-04-28T10:47:04;6.57;;;3.95;;
23747;SDS011;12054;53.662;10.126;2023-04-28T11:00:40;4.82;;;3.30;;
23747;SDS011;12054;53.662;10.126;2023-04-28T11:03:06;8.32;;;3.95;;
23747;SDS011;12054;53.662;10.126;2023-04-28T11:05:32;7.10;;;4.28;;
23747;SDS011;12054;53.662;10.126;2023-04-28T11:13:41;7.40;;;4.10;;
23747;SDS011;12054;53.662;10.126;2023-04-28T11:16:07;6.80;;;4.47;;
23747;SDS011;12054;53.662;10.126;2023-04-28T11:21:23;5.90;;;3.75;;
23747;SDS011;12054;53.662;10.126;2023-04-28T11:23:49;8.50;;;4.25;;
23747;SDS011;12054;53.662;10.126;2023-04-28T11:26:15;7.95;;;4.47;;
23747;SDS011;12054;53.662;10.126;2023-04-28T11:28:49;6.45;;;3.60;;
23747;SDS011;12054;53.662;10.126;2023-04-28T11:31:16;5.40;;;3.70;;
23747;SDS011;12054;53.662;10.126;2023-04-28T11:33:45;8.38;;;3.75;;
23747;SDS011;12054;53.662;10.126;2023-04-28T11:36:21;9.68;;;4.45;;
23747;SDS011;12054;53.662;10.126;2023-04-28T11:38:47;5.97;;;3.67;;
23747;SDS011;12054;53.662;10.126;2023-04-28T11:41:13;5.80;;;3.72;;
23747;SDS011;12054;53.662;10.126;2023-04-28T11:43:38;6.22;;;3.92;;
23747;SDS011;12054;53.662;10.126;2023-04-28T11:46:06;7.15;;;3.80;;
23747;SDS011;12054;53.662;10.126;2023-04-28T11:48:31;8.00;;;4.30;;
23747;SDS011;12054;53.662;10.126;2023-04-28T11:50:57;6.20;;;3.92;;
23747;SDS011;12054;53.662;10.126;2023-04-28T11:53:42;4.95;;;3.33;;
23747;SDS011;12054;53.662;10.126;2023-04-28T11:56:08;9.13;;;4.05;;
23747;SDS011;12054;53.662;10.126;2023-04-28T11:58:36;5.93;;;3.65;;
23747;SDS011;12054;53.662;10.126;2023-04-28T12:01:08;7.50;;;4.30;;
23747;SDS011;12054;53.662;10.126;2023-04-28T12:03:42;6.05;;;4.07;;
23747;SDS011;12054;53.662;10.126;2023-04-28T12:06:11;7.53;;;4.10;;
23747;SDS011;12054;53.662;10.126;2023-04-28T12:08:41;7.78;;;3.83;;
23747;SDS011;12054;53.662;10.126;2023-04-28T12:11:07;7.15;;;3.53;;
23747;SDS011;12054;53.662;10.126;2023-04-28T12:13:39;5.20;;;3.60;;
23747;SDS011;12054;53.662;10.126;2023-04-28T12:16:05;7.05;;;3.95;;
23747;SDS011;12054;53.662;10.126;2023-04-28T12:18:33;5.30;;;4.18;;
23747;SDS011;12054;53.662;10.126;2023-04-28T12:21:04;6.05;;;3.95;;
23747;SDS011;12054;53.662;10.126;2023-04-28T12:23:47;7.75;;;4.22;;
23747;SDS011;12054;53.662;10.126;2023-04-28T12:26:13;8.50;;;4.28;;
23747;SDS011;12054;53.662;10.126;2023-04-28T12:28:49;5.78;;;4.10;;
23747;SDS011;12054;53.662;10.126;2023-04-28T12:31:14;6.70;;;3.92;;
23747;SDS011;12054;53.662;10.126;2023-04-28T12:33:40;7.07;;;3.78;;
23747;SDS011;12054;53.662;10.126;2023-04-28T12:36:05;7.05;;;4.03;;
23747;SDS011;12054;53.662;10.126;2023-04-28T12:38:31;7.15;;;4.30;;
23747;SDS011;12054;53.662;10.126;2023-04-28T12:40:57;8.88;;;4.40;;
23747;SDS011;12054;53.662;10.126;2023-04-28T12:43:39;5.70;;;4.10;;
23747;SDS011;12054;53.662;10.126;2023-04-28T12:46:05;8.50;;;4.60;;
23747;SDS011;12054;53.662;10.126;2023-04-28T12:48:32;7.35;;;4.28;;
23747;SDS011;12054;53.662;10.126;2023-04-28T12:50:58;6.80;;;4.10;;
23747;SDS011;12054;53.662;10.126;2023-04-28T12:53:27;6.35;;;4.65;;
23747;SDS011;12054;53.662;10.126;2023-04-28T12:55:52;7.25;;;4.90;;
23747;SDS011;12054;53.662;10.126;2023-04-28T12:58:18;8.77;;;4.80;;
23747;SDS011;12054;53.662;10.126;2023-04-28T13:00:43;6.68;;;4.55;;
23747;SDS011;12054;53.662;10.126;2023-04-28T13:03:09;9.85;;;4.82;;
23747;SDS011;12054;53.662;10.126;2023-04-28T13:05:35;9.63;;;4.53;;
23747;SDS011;12054;53.662;10.126;2023-04-28T13:08:01;6.22;;;4.90;;
23747;SDS011;12054;53.662;10.126;2023-04-28T13:10:26;10.43;;;5.03;;
23747;SDS011;12054;53.662;10.126;2023-04-28T13:12:52;7.38;;;4.90;;
23747;SDS011;12054;53.662;10.126;2023-04-28T13:15:18;6.63;;;4.93;;
23747;SDS011;12054;53.662;10.126;2023-04-28T13:17:43;10.10;;;4.50;;
23747;SDS011;12054;53.662;10.126;2023-04-28T13:20:10;7.97;;;4.75;;
23747;SDS011;12054;53.662;10.126;2023-04-28T13:22:36;8.10;;;5.03;;
23747;SDS011;12054;53.662;10.126;2023-04-28T13:25:02;6.13;;;4.45;;
23747;SDS011;12054;53.662;10.126;2023-04-28T13:27:27;7.97;;;4.45;;
23747;SDS011;12054;53.662;10.126;2023-04-28T13:29:54;8.88;;;5.10;;
23747;SDS011;12054;53.662;10.126;2023-04-28T13:32:22;7.82;;;4.85;;
23747;SDS011;12054;53.662;10.126;2023-04-28T13:34:48;8.95;;;5.30;;
23747;SDS011;12054;53.662;10.126;2023-04-28T13:37:14;8.40;;;5.20;;
23747;SDS011;12054;53.662;10.126;2023-04-28T13:39:39;8.27;;;5.47;;
23747;SDS011;12054;53.662;10.126;2023-04-28T13:42:05;8.80;;;4.95;;
23747;SDS011;12054;53.662;10.126;2023-04-28T13:44:31;7.07;;;4.20;;
23747;SDS011;12054;53.662;10.126;2023-04-28T13:46:56;6.50;;;4.25;;
23747;SDS011;12054;53.662;10.126;2023-04-28T13:49:22;7.43;;;4.47;;
23747;SDS011;12054;53.662;10.126;2023-04-28T13:51:48;7.55;;;4.88;;
23747;SDS011;12054;53.662;10.126;2023-04-28T13:54:13;5.78;;;3.85;;
23747;SDS011;12054;53.662;10.126;2023-04-28T13:56:39;7.68;;;4.20;;
23747;SDS011;12054;53.662;10.126;2023-04-28T13:59:05;7.15;;;5.03;;
23747;SDS011;12054;53.662;10.126;2023-04-28T14:01:31;8.07;;;4.18;;
23747;SDS011;12054;53.662;10.126;2023-04-28T14:03:56;6.63;;;4.28;;
23747;SDS011;12054;53.662;10.126;2023-04-28T14:06:22;9.10;;;4.20;;
23747;SDS011;12054;53.662;10.126;2023-04-28T14:08:47;7.25;;;4.70;;
23747;SDS011;12054;53.662;10.126;2023-04-28T14:11:13;5.38;;;4.32;;
23747;SDS011;12054;53.662;10.126;2023-04-28T14:13:56;6.43;;;4.90;;
23747;SDS011;12054;53.662;10.126;2023-04-28T14:16:21;6.85;;;4.63;;
23747;SDS011;12054;53.662;10.126;2023-04-28T14:18:47;6.63;;;4.32;;
23747;SDS011;12054;53.662;10.126;2023-04-28T14:21:12;7.50;;;4.38;;
23747;SDS011;12054;53.662;10.126;2023-04-28T14:23:38;7.10;;;4.65;;
23747;SDS011;12054;53.662;10.126;2023-04-28T14:26:05;7.88;;;4.53;;
23747;SDS011;12054;53.662;10.126;2023-04-28T14:28:37;5.80;;;4.22;;
23747;SDS011;12054;53.662;10.126;2023-04-28T14:31:03;8.77;;;4.53;;
23747;SDS011;12054;53.662;10.126;2023-04-28T14:33:31;7.63;;;4.75;;
23747;SDS011;12054;53.662;10.126;2023-04-28T14:35:56;8.23;;;4.72;;
23747;SDS011;12054;53.662;10.126;2023-04-28T14:38:22;6.35;;;5.00;;
23747;SDS011;12054;53.662;10.126;2023-04-28T14:40:48;6.38;;;4.60;;
23747;SDS011;12054;53.662;10.126;2023-04-28T14:43:13;6.50;;;4.68;;
23747;SDS011;12054;53.662;10.126;2023-04-28T14:45:40;6.90;;;4.78;;
23747;SDS011;12054;53.662;10.126;2023-04-28T14:48:05;8.75;;;4.80;;